• Join FlightAware (Why Join?)
  • Login
  • US Flag 
02:11PM EST


 

Airport Tracker/Info


-or-


 

Live Flight TrackerFlight Track Log ✈ KAP3 ✈ 19-Jul-2013 ✈ KBOS - KMVY

Flight Track Log - Related Links

Times and Time Zones

All times are in EDT time to prevent confusion due to time zone crossing. See the KAP3 flight status page for this flight to view local times or setup timezone preferences in your user account.

Time Position Orientation Groundspeed Altitude Reporting Facility
EDT Latitude Longitude Course Direction KTS MPH feet Rate Location/Type
03:22PM 42.3667 -71.0167 200° South 95 109 500  Level KA90
03:23PM 42.3333 -71.0333 200° South 88 101 1,000 480 Climbing KA90
03:24PM 42.3167 -71.0500 216° Southwest 89 102 1,500 540 Climbing KA90
03:25PM 42.3000 -71.0667 216° Southwest 93 107 2,100 540 Climbing KA90
03:26PM 42.2833 -71.0500 144° Southeast 108 124 2,600 420 Climbing KA90
03:27PM 42.2500 -71.0333 160° South 115 132 3,000 360 Climbing KA90
03:28PM 42.2167 -71.0000 143° Southeast 129 148 3,400 240 Climbing KA90
03:29PM 42.1833 -70.9833 160° South 136 157 3,500  Climbing KA90
03:30PM 42.1500 -70.9667 160° South 156 180 3,400 -120 Descending KA90
03:32PM 42.0864 -70.9367 160° South  Level Estimated
03:39PM 41.8557 -70.7889 161° South  Level FlightAware Approximate
03:40PM 41.8216 -70.7734 161° South  Level FlightAware Approximate
03:41PM 41.7874 -70.7579 161° South  Level FlightAware Approximate
03:42PM 41.7532 -70.7423 161° South  Level FlightAware Approximate
03:43PM 41.7188 -70.7279 164° South  Level FlightAware Approximate
03:44PM 41.6841 -70.7148 164° South  Level FlightAware Approximate
03:45PM 41.6493 -70.7018 164° South  Level FlightAware Approximate
03:46PM 41.6146 -70.6888 164° South  Level FlightAware Approximate
03:47PM 41.5798 -70.6758 164° South  Level FlightAware Approximate
03:48PM 41.5451 -70.6627 164° South  Level FlightAware Approximate
03:49PM 41.5104 -70.6497 164° South  Level FlightAware Approximate
03:50PM 41.4756 -70.6367 164° South  Level FlightAware Approximate
03:51PM 41.4410 -70.6231 163° South  Level FlightAware Approximate
03:52PM 41.4065 -70.6092 163° South  Level FlightAware Approximate
03:53PM 41.3934 -70.6139 163° South  Level Estimated
03:54PM 41.3934 -70.6139 163° South  Level Estimated
03:55PM 41.3934 -70.6139 163° South  Level Estimated
03:56PM 41.3934 -70.6139 163° South  Level Estimated
03:57PM 41.3934 -70.6139 163° South  Level Estimated
03:58PM 41.3934 -70.6139 163° South  Level Estimated